Time;durP1;ratioP1;P1;durP2;ratioP2;P2;SDS_P1;SDS_P2;PMS_P1;PMS_P2;Temp;Humidity;BMP_temperature;BMP_pressure;BME280_temperature;BME280_humidity;BME280_pressure;Samples;Min_cycle;Max_cycle;Signal;HPM_P1;HPM_P2
2024/02/12 00:02:05;;;;;;;0.57;0.57;;;6.90;99.90;;;;;;6150985;23;20072;-79
2024/02/12 00:04:31;;;;;;;2.03;1.45;;;6.90;99.90;;;;;;6148978;23;20014;-80
2024/02/12 00:06:56;;;;;;;1.10;1.10;;;6.90;99.90;;;;;;6098347;23;20481;-80
2024/02/12 00:09:23;;;;;;;0.95;0.95;;;6.80;99.90;;;;;;6122057;23;20100;-80
2024/02/12 00:11:50;;;;;;;1.70;1.65;;;6.90;99.90;;;;;;6148979;23;20016;-80
2024/02/12 00:14:16;;;;;;;1.73;1.63;;;6.90;99.90;;;;;;6123121;23;20013;-79
2024/02/12 00:16:43;;;;;;;1.77;1.67;;;6.90;99.90;;;;;;6099391;23;20014;-80
2024/02/12 00:19:08;;;;;;;2.05;1.95;;;6.90;99.90;;;;;;6097072;23;20093;-80
2024/02/12 00:21:35;;;;;;;1.85;1.75;;;6.90;99.90;;;;;;6121438;23;20019;-80
2024/02/12 00:24:00;;;;;;;0.95;0.95;;;6.90;99.90;;;;;;6148632;23;20036;-80
2024/02/12 00:26:26;;;;;;;1.30;1.30;;;6.90;99.90;;;;;;6097698;23;20548;-80
2024/02/12 00:28:54;;;;;;;1.98;1.42;;;6.90;99.90;;;;;;6122771;23;20054;-80
2024/02/12 00:31:23;;;;;;;1.67;1.60;;;6.80;99.90;;;;;;6122378;23;20453;-80
2024/02/12 00:33:49;;;;;;;6.13;1.17;;;6.90;99.90;;;;;;6096622;23;20018;-80
2024/02/12 00:36:15;;;;;;;;;;;6.80;99.90;;;;;;6074322;23;20029;-79
2024/02/12 00:38:42;;;;;;;0.70;0.70;;;6.80;99.90;;;;;;6121850;23;19916;-80
2024/02/12 00:41:15;;;;;;;1.13;1.02;;;7.80;99.90;;;;;;6122310;23;20512;-79
2024/02/12 00:43:42;;;;;;;0.63;0.63;;;6.70;99.90;;;;;;6121577;23;20018;-80
2024/02/12 00:46:08;;;;;;;0.77;0.77;;;6.70;99.90;;;;;;6146809;23;20055;-80
2024/02/12 00:48:35;;;;;;;1.50;1.45;;;6.70;99.90;;;;;;6121313;23;20020;-79
2024/02/12 00:51:01;;;;;;;0.85;0.85;;;6.70;99.90;;;;;;6074271;23;20108;-80
2024/02/12 00:53:27;;;;;;;5.18;4.85;;;7.30;99.90;;;;;;6147880;23;20469;-80
2024/02/12 00:55:53;;;;;;;;;;;6.70;99.90;;;;;;6123044;23;20079;-81
2024/02/12 00:58:19;;;;;;;2.00;1.90;;;6.70;99.90;;;;;;6122540;23;19917;-80
2024/02/12 01:00:45;;;;;;;1.02;1.02;;;6.70;99.90;;;;;;6097454;23;20032;-80
2024/02/12 01:03:10;;;;;;;1.27;1.20;;;6.70;99.90;;;;;;6121601;23;20585;-81
2024/02/12 01:05:36;;;;;;;0.40;0.40;;;6.70;99.90;;;;;;6096920;23;20080;-81
2024/02/12 01:08:02;;;;;;;0.60;0.60;;;6.70;99.90;;;;;;6121034;23;20027;-81
2024/02/12 01:10:27;;;;;;;1.30;1.25;;;6.70;99.90;;;;;;6097216;23;20085;-81
2024/02/12 01:12:53;;;;;;;0.90;0.88;;;6.70;99.90;;;;;;6120834;23;20021;-80
2024/02/12 01:15:19;;;;;;;0.73;0.73;;;6.80;99.90;;;;;;6123721;23;20021;-80
2024/02/12 01:17:45;;;;;;;0.82;0.82;;;6.70;99.90;;;;;;6124438;23;20301;-80
2024/02/12 01:20:11;;;;;;;1.52;1.48;;;6.80;99.90;;;;;;6150953;23;20088;-81
2024/02/12 01:22:40;;;;;;;0.50;0.50;;;6.80;99.90;;;;;;6100759;23;20057;-79
2024/02/12 01:25:06;;;;;;;0.52;0.52;;;6.70;99.90;;;;;;6125340;23;20074;-79
2024/02/12 01:27:32;;;;;;;1.00;1.00;;;6.80;99.90;;;;;;6124445;23;20022;-79
2024/02/12 01:29:57;;;;;;;3.22;1.95;;;7.50;99.90;;;;;;6125578;23;20017;-80
2024/02/12 01:32:24;;;;;;;2.20;2.00;;;6.80;99.90;;;;;;6100587;23;20029;-80
2024/02/12 01:34:49;;;;;;;2.05;0.70;;;6.70;99.90;;;;;;6124315;23;20025;-80
2024/02/12 01:37:16;;;;;;;0.77;0.77;;;7.30;99.90;;;;;;6125044;23;20013;-80
2024/02/12 01:39:41;;;;;;;1.00;1.00;;;6.70;99.90;;;;;;6101205;23;20028;-80
2024/02/12 01:42:14;;;;;;;1.48;0.93;;;6.70;99.90;;;;;;6125948;23;20014;-80
2024/02/12 01:44:48;;;;;;;0.65;0.65;;;6.70;99.90;;;;;;6124090;23;20021;-79
2024/02/12 01:47:15;;;;;;;0.68;0.68;;;6.60;99.90;;;;;;6101079;23;20449;-79
2024/02/12 01:49:43;;;;;;;2.10;2.00;;;6.60;99.90;;;;;;6099561;23;20017;-79
2024/02/12 01:52:13;;;;;;;1.20;1.20;;;6.50;99.90;;;;;;6101832;23;20040;-79
2024/02/12 01:54:39;;;;;;;0.80;0.80;;;6.50;99.90;;;;;;6150608;23;20516;-79
2024/02/12 01:57:05;;;;;;;0.70;0.70;;;6.50;99.90;;;;;;6150769;23;20480;-80
2024/02/12 01:59:31;;;;;;;2.65;1.45;;;6.50;99.90;;;;;;6100490;23;20132;-80
2024/02/12 02:01:57;;;;;;;0.95;0.93;;;6.50;99.90;;;;;;6100819;23;20092;-80
2024/02/12 02:04:24;;;;;;;0.75;0.75;;;6.50;99.90;;;;;;6076855;23;20052;-80
2024/02/12 02:06:53;;;;;;;1.75;1.17;;;6.50;99.90;;;;;;6099190;23;20484;-80
2024/02/12 02:09:19;;;;;;;0.82;0.82;;;6.50;99.90;;;;;;6124447;23;20056;-80
2024/02/12 02:11:45;;;;;;;0.70;0.70;;;6.60;99.90;;;;;;6126320;23;20018;-80
2024/02/12 02:14:11;;;;;;;5.22;2.40;;;6.60;99.90;;;;;;6126986;23;20505;-80
2024/02/12 02:16:38;;;;;;;3.55;0.90;;;6.60;99.90;;;;;;6125461;23;20097;-81
2024/02/12 02:19:04;;;;;;;0.70;0.70;;;6.60;99.90;;;;;;6126694;23;20017;-80
2024/02/12 02:21:30;;;;;;;1.27;1.20;;;6.60;99.90;;;;;;6125814;23;20024;-80
2024/02/12 02:24:02;;;;;;;0.82;0.82;;;6.60;99.90;;;;;;6126828;23;20021;-80
2024/02/12 02:26:28;;;;;;;0.82;0.82;;;6.60;99.90;;;;;;6152212;23;20005;-80
2024/02/12 02:28:56;;;;;;;;;;;7.10;99.90;;;;;;6127224;23;20013;-80
2024/02/12 02:31:22;;;;;;;3.90;3.70;;;6.60;99.90;;;;;;6126191;23;19947;-80
2024/02/12 02:33:47;;;;;;;0.60;0.60;;;6.60;99.90;;;;;;6126093;23;20024;-81
2024/02/12 02:36:13;;;;;;;0.90;0.90;;;6.60;99.90;;;;;;6151255;23;20481;-81
2024/02/12 02:38:39;;;;;;;1.42;1.42;;;6.60;99.90;;;;;;6126338;23;20018;-80
2024/02/12 02:41:04;;;;;;;0.80;0.80;;;6.60;99.90;;;;;;6151191;23;20021;-81
2024/02/12 02:43:31;;;;;;;1.98;1.80;;;6.60;99.90;;;;;;6150981;23;20017;-81
2024/02/12 02:45:59;;;;;;;1.33;1.33;;;6.70;99.90;;;;;;6125765;23;20394;-81
2024/02/12 02:48:28;;;;;;;0.70;0.70;;;7.10;99.90;;;;;;6103255;23;20010;-80
2024/02/12 02:50:54;;;;;;;0.70;0.70;;;6.70;99.90;;;;;;6126189;23;20092;-81
2024/02/12 02:53:20;;;;;;;;;;;6.70;99.90;;;;;;6127628;23;20029;-80
2024/02/12 02:55:46;;;;;;;0.55;0.55;;;6.70;99.90;;;;;;6152197;23;19913;-80
2024/02/12 02:58:11;;;;;;;4.82;4.43;;;6.70;99.90;;;;;;6126256;23;20067;-80
2024/02/12 03:00:37;;;;;;;0.93;0.93;;;6.70;99.90;;;;;;6151911;23;20017;-80
2024/02/12 03:03:03;;;;;;;1.85;1.75;;;6.80;99.90;;;;;;6126329;23;20076;-80
2024/02/12 03:05:29;;;;;;;1.02;1.02;;;6.70;99.90;;;;;;6125709;23;20009;-80
2024/02/12 03:07:55;;;;;;;1.15;1.15;;;6.80;99.90;;;;;;6149984;23;20446;-80
2024/02/12 03:10:21;;;;;;;3.53;2.35;;;6.70;99.90;;;;;;6127090;23;20345;-80
2024/02/12 03:12:47;;;;;;;0.60;0.60;;;6.70;99.90;;;;;;6101362;23;20055;-80
2024/02/12 03:15:14;;;;;;;0.57;0.57;;;6.70;99.90;;;;;;6125384;23;20462;-79
2024/02/12 03:17:44;;;;;;;0.65;0.65;;;6.70;99.90;;;;;;6101473;23;20121;-80
2024/02/12 03:20:11;;;;;;;1.95;0.82;;;6.80;99.90;;;;;;6126096;23;20528;-81
2024/02/12 03:22:41;;;;;;;1.63;1.60;;;6.80;99.90;;;;;;6101864;23;20028;-80
2024/02/12 03:25:11;;;;;;;0.50;0.50;;;6.70;99.90;;;;;;6153113;23;20013;-81
2024/02/12 03:27:43;;;;;;;0.70;0.70;;;6.80;99.90;;;;;;6150752;23;20032;-80
2024/02/12 03:30:10;;;;;;;0.93;0.90;;;6.70;99.90;;;;;;6127142;23;20097;-79
2024/02/12 03:32:39;;;;;;;1.48;1.38;;;6.70;99.90;;;;;;6126402;23;20020;-80
2024/02/12 03:35:06;;;;;;;3.03;0.80;;;6.70;99.90;;;;;;6126666;23;20515;-83
2024/02/12 03:37:31;;;;;;;0.75;0.75;;;6.80;99.90;;;;;;6152820;23;20017;-81
2024/02/12 03:39:57;;;;;;;0.50;0.50;;;6.80;99.90;;;;;;6100882;23;20093;-80
2024/02/12 03:42:28;;;;;;;0.82;0.82;;;6.70;99.90;;;;;;6102217;23;20059;-81
2024/02/12 03:44:54;;;;;;;1.40;0.90;;;6.80;99.90;;;;;;6125484;23;20868;-80
2024/02/12 03:47:37;;;;;;;0.95;0.95;;;6.70;99.90;;;;;;6126530;23;20013;-81
2024/02/12 04:01:06;;;;;;;1.08;1.08;;;6.60;99.90;;;;;;6104768;23;20093;-81
2024/02/12 04:03:33;;;;;;;0.70;0.70;;;6.60;99.90;;;;;;6126211;23;20017;-80
2024/02/12 04:06:00;;;;;;;2.65;0.90;;;6.60;99.90;;;;;;6100317;23;20412;-81
2024/02/12 04:08:26;;;;;;;0.70;0.70;;;6.60;99.90;;;;;;6101128;23;20565;-81
2024/02/12 04:10:51;;;;;;;1.35;1.25;;;6.60;99.90;;;;;;6125391;23;20017;-81
2024/02/12 04:13:19;;;;;;;0.50;0.50;;;6.60;99.90;;;;;;6125987;23;20028;-79
2024/02/12 04:15:44;;;;;;;0.50;0.50;;;6.60;99.90;;;;;;6101886;23;20017;-79
2024/02/12 04:18:10;;;;;;;2.47;2.17;;;6.60;99.90;;;;;;6100506;23;20630;-80
2024/02/12 04:20:37;;;;;;;0.52;0.52;;;6.60;99.90;;;;;;6124415;23;20072;-80
2024/02/12 04:23:04;;;;;;;2.65;1.75;;;6.60;99.90;;;;;;6152040;23;20088;-81
2024/02/12 04:25:32;;;;;;;1.05;1.05;;;6.60;99.90;;;;;;6104089;23;20017;-81
2024/02/12 04:28:00;;;;;;;1.40;1.23;;;6.60;99.90;;;;;;6103877;23;20017;-81
2024/02/12 04:30:29;;;;;;;1.35;1.25;;;6.50;99.90;;;;;;6129426;23;20021;-82
2024/02/12 04:32:55;;;;;;;1.33;1.02;;;6.60;99.90;;;;;;6079592;23;20049;-81
2024/02/12 04:35:22;;;;;;;0.50;0.50;;;6.60;99.90;;;;;;6152290;23;20017;-81
2024/02/12 04:37:48;;;;;;;2.20;1.77;;;6.60;99.90;;;;;;6103118;23;20350;-81
2024/02/12 04:40:13;;;;;;;2.13;2.03;;;6.60;99.90;;;;;;6128412;23;20022;-81
2024/02/12 04:42:39;;;;;;;2.90;2.47;;;6.60;99.90;;;;;;6104990;23;20045;-81
2024/02/12 04:45:05;;;;;;;;;;;6.60;99.90;;;;;;6130440;23;20433;-81
2024/02/12 04:47:31;;;;;;;5.22;1.50;;;6.60;99.90;;;;;;6104513;23;20003;-81
2024/02/12 04:49:57;;;;;;;1.05;1.05;;;6.60;99.90;;;;;;6105551;23;20017;-81
2024/02/12 04:52:23;;;;;;;2.03;1.92;;;6.50;99.90;;;;;;6105830;23;20103;-80
2024/02/12 04:54:48;;;;;;;2.88;0.90;;;6.60;99.90;;;;;;6105478;23;20101;-82
2024/02/12 04:57:14;;;;;;;3.13;2.90;;;6.60;99.90;;;;;;6130064;23;20017;-82
2024/02/12 04:59:40;;;;;;;1.10;1.10;;;6.60;99.90;;;;;;6106462;23;20402;-82
2024/02/12 05:02:06;;;;;;;1.42;1.33;;;6.60;99.90;;;;;;6130336;23;20010;-82
2024/02/12 05:04:32;;;;;;;0.93;0.93;;;6.60;99.90;;;;;;6107944;23;20013;-81
2024/02/12 05:06:58;;;;;;;0.40;0.40;;;7.10;99.90;;;;;;6131457;23;20017;-81
2024/02/12 05:09:24;;;;;;;1.90;1.73;;;6.70;99.90;;;;;;6103799;23;20049;-81
2024/02/12 05:11:50;;;;;;;;;;;6.60;99.90;;;;;;6115450;23;20013;-79
2024/02/12 05:14:17;;;;;;;0.70;0.70;;;6.70;99.90;;;;;;6103554;23;19971;-83
2024/02/12 05:16:45;;;;;;;0.60;0.60;;;6.70;99.90;;;;;;6104780;23;20048;-80
2024/02/12 05:24:39;;;;;;;2.15;1.98;;;6.60;99.90;;;;;;6109135;23;20025;-81
2024/02/12 05:27:05;;;;;;;1.30;1.30;;;6.60;99.90;;;;;;6155523;23;20021;-82
2024/02/12 05:29:31;;;;;;;0.55;0.55;;;6.50;99.90;;;;;;6129643;23;20542;-85
2024/02/12 05:31:56;;;;;;;4.88;3.67;;;6.60;99.90;;;;;;6128854;23;20025;-82
2024/02/12 05:34:23;;;;;;;0.60;0.60;;;6.60;99.90;;;;;;6128977;23;20069;-81
2024/02/12 05:36:51;;;;;;;9.18;2.20;;;6.50;99.90;;;;;;6153417;23;20041;-81
2024/02/12 05:39:16;;;;;;;0.90;0.90;;;6.40;99.90;;;;;;6102087;23;20434;-81
2024/02/12 05:41:43;;;;;;;2.25;0.95;;;6.30;99.90;;;;;;6124971;23;20100;-81
2024/02/12 05:44:08;;;;;;;0.60;0.60;;;6.30;99.90;;;;;;6152657;23;20472;-80
2024/02/12 05:46:34;;;;;;;1.10;1.10;;;6.20;99.90;;;;;;6103128;23;20017;-80
2024/02/12 05:49:00;;;;;;;0.85;0.73;;;6.20;99.90;;;;;;6103652;23;20020;-80
2024/02/12 05:51:26;;;;;;;0.98;0.98;;;6.20;99.90;;;;;;6154895;23;20021;-82
2024/02/12 05:53:53;;;;;;;1.20;1.15;;;6.10;99.90;;;;;;6155415;23;20017;-83
2024/02/12 05:56:21;;;;;;;3.40;3.15;;;6.10;99.90;;;;;;6153255;23;20009;-82
2024/02/12 05:58:47;;;;;;;2.13;1.88;;;6.10;99.90;;;;;;6154212;23;20013;-81
2024/02/12 06:01:13;;;;;;;1.10;1.05;;;6.10;99.90;;;;;;6128417;23;20021;-80
2024/02/12 06:03:39;;;;;;;0.85;0.85;;;6.20;99.90;;;;;;6128423;23;20014;-81
2024/02/12 06:06:05;;;;;;;2.85;2.65;;;6.00;99.90;;;;;;6156136;23;20121;-83
2024/02/12 06:08:31;;;;;;;0.80;0.80;;;6.00;99.90;;;;;;6155801;23;20066;-81
2024/02/12 06:10:56;;;;;;;1.05;1.05;;;6.10;99.90;;;;;;6154962;23;20092;-84
2024/02/12 06:13:22;;;;;;;1.20;1.13;;;6.00;99.90;;;;;;6127686;23;20132;-83
2024/02/12 06:15:48;;;;;;;0.95;0.95;;;6.10;99.90;;;;;;6154808;23;20021;-80
2024/02/12 06:18:13;;;;;;;1.13;1.13;;;6.00;99.90;;;;;;6128100;23;20406;-82
2024/02/12 06:20:40;;;;;;;0.73;0.73;;;6.00;99.90;;;;;;6154072;23;20098;-80
2024/02/12 06:23:05;;;;;;;0.57;0.57;;;6.20;99.90;;;;;;6147313;23;20076;-79
2024/02/12 06:25:31;;;;;;;1.10;1.10;;;6.10;99.90;;;;;;6102226;23;20056;-81
2024/02/12 06:27:59;;;;;;;4.80;2.28;;;6.10;99.90;;;;;;6127170;23;20020;-83
2024/02/12 06:30:25;;;;;;;0.88;0.88;;;6.30;99.90;;;;;;6154878;23;20067;-84
2024/02/12 06:32:51;;;;;;;0.93;0.93;;;6.10;99.90;;;;;;6157524;23;20017;-81
2024/02/12 06:35:17;;;;;;;0.85;0.85;;;6.20;99.90;;;;;;6155062;23;20543;-83
2024/02/12 06:37:46;;;;;;;2.65;1.60;;;6.20;99.90;;;;;;6128712;23;20501;-83
2024/02/12 06:40:13;;;;;;;0.60;0.60;;;6.20;99.90;;;;;;6155977;23;20010;-81
2024/02/12 06:42:39;;;;;;;1.27;1.20;;;6.20;99.90;;;;;;6131927;23;20017;-82
2024/02/12 06:45:05;;;;;;;1.08;1.08;;;6.20;99.90;;;;;;6158394;23;20012;-82
2024/02/12 06:47:32;;;;;;;;;;;6.20;99.90;;;;;;6107368;23;20486;-82
2024/02/12 06:49:57;;;;;;;1.25;1.25;;;6.20;99.90;;;;;;6156975;23;19980;-82
2024/02/12 06:52:23;;;;;;;0.80;0.80;;;6.20;99.90;;;;;;6157467;23;20021;-82
2024/02/12 06:54:49;;;;;;;2.05;1.63;;;6.20;99.90;;;;;;6159373;23;20088;-82
2024/02/12 06:57:15;;;;;;;0.70;0.70;;;6.10;99.90;;;;;;6134590;23;20013;-82
2024/02/12 06:59:42;;;;;;;0.50;0.50;;;6.10;99.90;;;;;;6160643;23;20080;-81
2024/02/12 07:02:09;;;;;;;0.75;0.75;;;6.30;99.90;;;;;;6160794;23;20385;-82
2024/02/12 07:04:35;;;;;;;0.85;0.85;;;6.20;99.90;;;;;;6161053;23;20018;-80
2024/02/12 07:07:01;;;;;;;1.08;1.08;;;6.40;99.90;;;;;;6159155;23;20010;-82
2024/02/12 07:09:26;;;;;;;1.67;1.58;;;7.10;99.90;;;;;;6157931;23;20018;-80
2024/02/12 07:11:52;;;;;;;9.75;2.35;;;6.10;99.90;;;;;;6134662;23;20404;-83
2024/02/12 07:14:18;;;;;;;1.02;1.02;;;6.20;99.90;;;;;;6162052;23;20045;-83
2024/02/12 07:16:44;;;;;;;1.58;1.48;;;6.20;99.90;;;;;;6162352;23;20046;-83
2024/02/12 07:19:10;;;;;;;0.68;0.68;;;6.20;99.90;;;;;;6161955;23;20345;-83
2024/02/12 07:21:36;;;;;;;1.45;1.23;;;6.20;99.90;;;;;;6134255;23;20507;-83
2024/02/12 07:24:04;;;;;;;;;;;6.20;99.90;;;;;;6136403;23;20045;-80
2024/02/12 07:26:30;;;;;;;0.45;0.45;;;6.20;99.90;;;;;;6160066;23;19992;-83
2024/02/12 07:28:56;;;;;;;0.70;0.70;;;6.20;99.90;;;;;;6133418;23;20010;-80
2024/02/12 07:31:21;;;;;;;0.63;0.63;;;6.20;99.90;;;;;;6158449;23;20527;-81
2024/02/12 07:33:47;;;;;;;1.45;1.35;;;5.60;99.90;;;;;;6160254;23;20020;-82
2024/02/12 07:36:13;;;;;;;0.65;0.65;;;6.20;99.90;;;;;;6132678;23;20021;-83
2024/02/12 07:38:40;;;;;;;2.08;1.58;;;6.20;99.90;;;;;;6134881;23;20021;-83
2024/02/12 07:41:06;;;;;;;0.80;0.80;;;6.20;99.90;;;;;;6159693;23;20061;-82
2024/02/12 07:43:31;;;;;;;1.27;1.20;;;6.20;99.90;;;;;;6134108;23;20044;-81
2024/02/12 07:45:58;;;;;;;0.82;0.82;;;6.20;99.90;;;;;;6162138;23;20010;-82
2024/02/12 07:48:29;;;;;;;1.25;1.23;;;6.20;99.90;;;;;;6163638;23;20025;-83
2024/02/12 07:50:56;;;;;;;1.27;1.27;;;6.20;99.90;;;;;;6162136;23;20021;-80
2024/02/12 07:53:25;;;;;;;2.15;1.88;;;6.20;99.90;;;;;;6085852;23;20040;-82
2024/02/12 07:55:52;;;;;;;3.80;1.40;;;6.30;99.90;;;;;;6110397;23;20148;-81
2024/02/12 07:58:20;;;;;;;1.52;1.42;;;6.00;99.90;;;;;;6110273;23;20017;-82
2024/02/12 08:00:50;;;;;;;0.80;0.80;;;6.30;99.90;;;;;;6086250;23;20018;-82
2024/02/12 08:03:19;;;;;;;1.17;1.17;;;6.30;99.90;;;;;;6087022;23;20334;-82
2024/02/12 08:05:49;;;;;;;4.05;2.15;;;6.40;99.90;;;;;;6109886;23;20018;-83
2024/02/12 08:08:18;;;;;;;0.82;0.82;;;6.30;99.90;;;;;;6106835;23;20024;-81
2024/02/12 08:10:45;;;;;;;0.80;0.80;;;6.40;99.90;;;;;;6109057;23;20034;-81
2024/02/12 08:13:14;;;;;;;0.57;0.57;;;6.40;99.90;;;;;;6086945;23;20014;-81
2024/02/12 08:15:49;;;;;;;3.13;3.03;;;6.40;99.90;;;;;;6112578;23;20465;-81
2024/02/12 08:18:15;;;;;;;3.20;1.58;;;6.40;99.90;;;;;;6086564;23;20025;-83
2024/02/12 08:25:44;;;;;;;0.80;0.77;;;6.60;99.90;;;;;;6175101;23;20021;-82
2024/02/12 08:28:09;;;;;;;1.35;1.27;;;6.60;99.90;;;;;;6190668;23;20081;-81
2024/02/12 08:30:35;;;;;;;5.55;2.60;;;6.60;99.90;;;;;;6163921;23;20028;-82
2024/02/12 08:33:01;;;;;;;0.50;0.50;;;6.60;99.90;;;;;;6164596;23;20291;-82
2024/02/12 08:35:27;;;;;;;0.52;0.52;;;6.70;99.90;;;;;;6165191;23;20017;-84
2024/02/12 08:37:59;;;;;;;1.45;1.13;;;8.20;99.90;;;;;;6137981;23;20028;-83
2024/02/12 08:40:26;;;;;;;1.15;1.15;;;7.00;99.90;;;;;;6116703;23;20098;-83
2024/02/12 08:42:52;;;;;;;0.98;0.98;;;6.80;99.90;;;;;;6116577;23;20024;-81
2024/02/12 08:45:18;;;;;;;0.98;0.98;;;6.80;99.90;;;;;;6116473;23;20023;-82
2024/02/12 08:47:46;;;;;;;1.67;1.58;;;6.80;99.90;;;;;;6116647;23;20016;-82
2024/02/12 08:50:15;;;;;;;0.63;0.63;;;6.80;99.90;;;;;;6115473;23;20052;-82
2024/02/12 08:52:45;;;;;;;1.38;1.30;;;6.70;99.90;;;;;;6114990;23;20021;-82
2024/02/12 08:55:13;;;;;;;0.95;0.95;;;8.90;99.90;;;;;;6141072;23;20023;-83
2024/02/12 08:57:42;;;;;;;2.38;2.28;;;7.10;99.90;;;;;;6139559;23;20437;-82
2024/02/12 09:00:13;;;;;;;2.55;2.45;;;7.20;99.90;;;;;;6117457;23;20021;-82
2024/02/12 09:02:42;;;;;;;1.48;1.38;;;7.30;99.90;;;;;;6141412;23;20017;-83
2024/02/12 09:05:11;;;;;;;0.50;0.50;;;7.40;99.90;;;;;;6116022;23;20067;-82
2024/02/12 09:07:40;;;;;;;5.13;1.75;;;7.50;99.90;;;;;;6141366;23;20021;-81
2024/02/12 09:10:13;;;;;;;1.58;1.42;;;7.60;99.90;;;;;;6140883;23;20021;-83
2024/02/12 09:12:46;;;;;;;2.05;1.95;;;7.90;99.90;;;;;;6142444;23;20027;-79
2024/02/12 09:15:16;;;;;;;1.55;1.45;;;7.80;99.90;;;;;;6118607;23;20095;-82
2024/02/12 09:17:44;;;;;;;1.33;1.33;;;7.80;99.90;;;;;;6140528;23;20021;-80
2024/02/12 09:20:14;;;;;;;0.70;0.70;;;7.90;99.90;;;;;;6145331;23;20072;-81
2024/02/12 09:22:43;;;;;;;3.55;2.05;;;7.90;99.90;;;;;;6144096;23;20013;-82
2024/02/12 09:25:17;;;;;;;2.58;0.95;;;8.80;99.90;;;;;;6144919;23;20025;-82
2024/02/12 09:27:48;;;;;;;1.60;1.50;;;7.90;99.90;;;;;;6144817;23;20027;-78
2024/02/12 09:30:16;;;;;;;1.00;1.00;;;8.20;99.90;;;;;;6121564;23;20129;-82
2024/02/12 09:32:46;;;;;;;1.27;1.23;;;7.90;99.90;;;;;;6145276;23;20056;-81
2024/02/12 09:35:17;;;;;;;1.05;1.00;;;8.00;99.90;;;;;;6144827;23;20021;-82
2024/02/12 09:37:46;;;;;;;0.63;0.63;;;9.20;99.90;;;;;;6144749;23;20013;-83
2024/02/12 09:40:14;;;;;;;1.10;1.00;;;8.10;99.90;;;;;;6142771;23;20024;-81
2024/02/12 09:42:40;;;;;;;0.73;0.60;;;8.20;99.90;;;;;;6144013;23;20024;-80
2024/02/12 09:45:11;;;;;;;0.77;0.77;;;8.40;99.90;;;;;;6119733;23;20089;-82
2024/02/12 09:47:37;;;;;;;1.25;1.15;;;8.40;99.90;;;;;;6143960;23;20040;-80
2024/02/12 09:50:07;;;;;;;0.70;0.70;;;8.20;99.90;;;;;;6145882;23;20041;-81
2024/02/12 09:52:34;;;;;;;0.70;0.70;;;8.10;99.90;;;;;;6146636;23;20016;-82
2024/02/12 09:55:02;;;;;;;0.90;0.90;;;8.10;99.90;;;;;;6119711;23;20152;-81
2024/02/12 09:57:30;;;;;;;0.90;0.90;;;8.10;99.90;;;;;;6144026;23;20044;-81
2024/02/12 09:59:59;;;;;;;1.40;1.17;;;;;;;;;;6121717;23;20017;-80
2024/02/12 10:02:25;;;;;;;;;;;8.30;99.90;;;;;;6144713;23;20055;-80
2024/02/12 10:04:51;;;;;;;0.38;0.38;;;8.40;99.90;;;;;;6120094;23;19916;-82
2024/02/12 10:07:17;;;;;;;0.85;0.85;;;8.50;99.90;;;;;;6144909;23;20108;-82
2024/02/12 10:09:46;;;;;;;0.50;0.50;;;8.30;99.90;;;;;;6145010;23;20013;-81
2024/02/12 10:12:12;;;;;;;0.40;0.40;;;8.50;99.90;;;;;;6119954;23;20021;-82
2024/02/12 10:14:42;;;;;;;1.88;0.52;;;8.50;99.90;;;;;;6144293;23;20036;-81
2024/02/12 10:17:08;;;;;;;1.00;1.00;;;8.50;99.90;;;;;;6120381;23;20044;-80
2024/02/12 10:19:34;;;;;;;0.40;0.40;;;8.50;99.90;;;;;;6168221;23;20029;-82
2024/02/12 10:22:00;;;;;;;2.78;1.60;;;8.70;99.90;;;;;;6118469;23;20013;-84
2024/02/12 10:24:27;;;;;;;1.08;1.08;;;8.50;99.90;;;;;;6119818;23;20025;-81
2024/02/12 10:26:53;;;;;;;2.78;2.58;;;8.80;99.90;;;;;;6144371;23;20119;-81
2024/02/12 10:29:19;;;;;;;2.45;0.80;;;8.50;99.90;;;;;;6145336;23;20013;-81
2024/02/12 10:31:48;;;;;;;2.15;1.42;;;8.60;99.90;;;;;;6119335;23;20052;-80
2024/02/12 10:34:17;;;;;;;0.40;0.40;;;8.60;99.90;;;;;;6167795;23;20020;-81
2024/02/12 10:36:48;;;;;;;0.57;0.57;;;8.70;99.90;;;;;;6141952;23;20021;-83
2024/02/12 10:39:21;;;;;;;1.42;1.33;;;8.60;99.90;;;;;;6119866;23;20040;-81
2024/02/12 10:41:51;;;;;;;0.82;0.82;;;8.60;99.90;;;;;;6141901;23;20025;-82
2024/02/12 10:44:22;;;;;;;0.65;0.65;;;9.10;99.90;;;;;;6143189;23;20063;-79
2024/02/12 10:46:49;;;;;;;0.95;0.95;;;8.60;99.90;;;;;;6120058;23;20024;-81
2024/02/12 10:49:17;;;;;;;0.93;0.93;;;8.70;99.90;;;;;;6144283;23;20071;-82
2024/02/12 10:51:46;;;;;;;0.88;0.75;;;8.60;99.90;;;;;;6119679;23;20059;-82
2024/02/12 10:54:12;;;;;;;0.90;0.90;;;8.60;99.90;;;;;;6119491;23;20031;-81
2024/02/12 10:56:38;;;;;;;1.77;1.67;;;8.60;99.90;;;;;;6118737;23;20021;-82
2024/02/12 10:59:04;;;;;;;0.60;0.60;;;8.60;99.90;;;;;;6142273;23;20352;-82
2024/02/12 11:01:31;;;;;;;;;;;9.00;99.90;;;;;;6118032;23;20083;-82
2024/02/12 11:03:59;;;;;;;0.57;0.57;;;8.70;99.90;;;;;;6143255;23;19916;-82
2024/02/12 11:06:27;;;;;;;0.80;0.80;;;9.00;99.90;;;;;;6143280;23;20013;-81
2024/02/12 11:08:54;;;;;;;0.40;0.40;;;8.70;99.90;;;;;;6141646;23;20013;-82
2024/02/12 11:11:25;;;;;;;0.50;0.50;;;8.80;99.90;;;;;;6118109;23;20017;-80
2024/02/12 11:14:01;;;;;;;2.85;1.10;;;8.90;99.90;;;;;;6144352;23;20051;-81
2024/02/12 11:16:32;;;;;;;5.47;3.20;;;8.90;99.90;;;;;;6167998;23;20511;-80
2024/02/12 11:18:59;;;;;;;1.38;0.77;;;8.20;99.90;;;;;;6142913;23;20341;-83
2024/02/12 11:21:29;;;;;;;0.57;0.57;;;8.90;99.90;;;;;;6141476;23;20025;-80
2024/02/12 11:24:07;;;;;;;0.50;0.50;;;8.90;99.90;;;;;;6141326;23;20020;-81
2024/02/12 11:26:48;;;;;;;0.60;0.60;;;9.00;99.90;;;;;;6120109;23;20013;-81
2024/02/12 11:29:17;;;;;;;0.50;0.50;;;8.90;99.90;;;;;;6141948;23;20009;-83
2024/02/12 11:31:44;;;;;;;0.60;0.60;;;8.80;99.90;;;;;;6145478;23;20369;-81
2024/02/12 11:34:18;;;;;;;0.50;0.50;;;8.90;99.90;;;;;;6119289;23;20021;-83
2024/02/12 11:36:57;;;;;;;1.55;1.45;;;8.80;99.90;;;;;;6143112;23;20021;-82
2024/02/12 11:39:23;;;;;;;0.40;0.40;;;9.20;99.90;;;;;;6143275;23;20017;-82
2024/02/12 11:41:49;;;;;;;0.40;0.40;;;8.80;99.90;;;;;;6120815;23;20020;-81
2024/02/12 11:44:15;;;;;;;0.50;0.50;;;8.70;99.90;;;;;;6119277;23;20061;-82
2024/02/12 11:46:42;;;;;;;0.77;0.77;;;8.80;99.90;;;;;;6119359;23;20044;-85
2024/02/12 11:49:09;;;;;;;0.40;0.40;;;9.00;99.90;;;;;;6144197;23;20013;-82
2024/02/12 11:51:35;;;;;;;3.42;3.22;;;8.90;99.90;;;;;;6143546;23;20028;-81
2024/02/12 11:54:02;;;;;;;0.50;0.50;;;9.10;99.90;;;;;;6167415;23;20020;-82
2024/02/12 11:56:29;;;;;;;0.30;0.30;;;9.00;99.90;;;;;;6144281;23;20040;-85
2024/02/12 11:59:01;;;;;;;0.70;0.70;;;9.00;99.90;;;;;;6122600;23;20024;-81
2024/02/12 12:01:31;;;;;;;1.27;1.20;;;9.00;99.90;;;;;;6118145;23;20021;-80
2024/02/12 12:04:00;;;;;;;2.35;2.15;;;9.10;99.90;;;;;;6143208;23;20013;-83
2024/02/12 12:06:34;;;;;;;0.68;0.68;;;9.10;99.90;;;;;;6121010;23;20017;-83
2024/02/12 12:09:05;;;;;;;0.82;0.82;;;9.10;99.90;;;;;;6120068;23;20496;-83
2024/02/12 12:11:32;;;;;;;1.85;0.60;;;9.10;99.90;;;;;;6169347;23;20021;-82
2024/02/12 12:14:02;;;;;;;0.60;0.60;;;9.30;99.90;;;;;;6118342;23;20405;-85
2024/02/12 12:16:30;;;;;;;1.17;1.08;;;9.30;99.90;;;;;;6119533;23;20024;-83
2024/02/12 12:19:01;;;;;;;0.40;0.40;;;9.30;99.90;;;;;;6116922;23;20021;-82
2024/02/12 12:21:30;;;;;;;0.70;0.70;;;11.90;99.90;;;;;;6120937;23;20056;-84
2024/02/12 12:23:56;;;;;;;1.00;0.98;;;9.40;99.90;;;;;;6118616;23;20043;-83
2024/02/12 12:26:22;;;;;;;0.30;0.30;;;9.40;99.90;;;;;;6119641;23;20372;-83
2024/02/12 12:28:48;;;;;;;0.50;0.50;;;9.30;99.90;;;;;;6121141;23;20044;-81
2024/02/12 12:31:14;;;;;;;0.47;0.47;;;9.40;99.90;;;;;;6119463;23;20013;-83
2024/02/12 12:33:43;;;;;;;0.70;0.70;;;9.30;99.90;;;;;;6143617;23;20017;-83
2024/02/12 12:36:12;;;;;;;1.55;1.45;;;9.40;99.90;;;;;;6147279;23;20020;-84
2024/02/12 12:38:39;;;;;;;1.05;1.05;;;9.30;99.90;;;;;;6144449;23;20021;-81
2024/02/12 12:41:07;;;;;;;1.13;0.85;;;9.40;99.90;;;;;;6121451;23;20023;-84
2024/02/12 12:43:36;;;;;;;1.10;0.70;;;9.30;99.90;;;;;;6192800;23;20013;-83
2024/02/12 12:46:07;;;;;;;1.00;1.00;;;8.10;99.90;;;;;;6171420;23;20345;-83
2024/02/12 12:48:33;;;;;;;0.40;0.40;;;9.40;99.90;;;;;;6118312;23;20012;-85
2024/02/12 12:51:00;;;;;;;2.95;1.33;;;9.60;99.90;;;;;;6121569;23;20019;-82
2024/02/12 12:53:26;;;;;;;0.55;0.55;;;9.40;99.90;;;;;;6143390;23;20027;-84
2024/02/12 12:55:52;;;;;;;0.52;0.52;;;9.40;99.90;;;;;;6117526;23;20017;-84
2024/02/12 12:58:19;;;;;;;;;;;9.80;99.90;;;;;;6145271;23;20110;-83
2024/02/12 13:00:49;;;;;;;0.40;0.40;;;12.50;99.90;;;;;;6174043;23;19916;-86
2024/02/12 13:03:17;;;;;;;0.45;0.45;;;9.60;99.90;;;;;;6146179;23;20087;-86
2024/02/12 13:05:42;;;;;;;0.40;0.40;;;9.20;99.90;;;;;;6168782;23;20089;-85
2024/02/12 13:08:10;;;;;;;0.60;0.60;;;9.20;99.90;;;;;;6117695;23;20020;-85
2024/02/12 13:10:37;;;;;;;0.70;0.70;;;9.20;99.90;;;;;;6142751;23;20017;-87
2024/02/12 13:13:12;;;;;;;0.60;0.60;;;9.20;99.90;;;;;;6123602;23;20036;-85
2024/02/12 13:15:40;;;;;;;0.73;0.73;;;9.20;99.90;;;;;;6123068;23;20092;-85
2024/02/12 13:18:12;;;;;;;0.40;0.40;;;8.70;99.90;;;;;;6120911;23;20088;-89
2024/02/12 13:20:39;;;;;;;0.60;0.60;;;9.20;99.90;;;;;;6144094;23;20017;-84
2024/02/12 13:23:06;;;;;;;0.30;0.30;;;9.30;99.90;;;;;;6137179;23;20017;-84